createdAt,value
2023-05-19T00:01:17.794Z,9.37
2023-05-19T00:03:52.742Z,9.31
2023-05-19T00:06:27.270Z,9.33
2023-05-19T00:09:12.673Z,9.30
2023-05-19T00:11:40.437Z,9.23
2023-05-19T00:14:09.597Z,9.26
2023-05-19T00:16:40.605Z,9.18
2023-05-19T00:19:10.047Z,9.25
2023-05-19T00:21:40.630Z,9.17
2023-05-19T00:24:07.532Z,9.17
2023-05-19T00:26:34.351Z,9.24
2023-05-19T00:29:05.616Z,9.20
2023-05-19T00:31:33.973Z,9.18
2023-05-19T00:34:01.252Z,9.04
2023-05-19T00:36:28.472Z,9.16
2023-05-19T00:38:56.010Z,9.12
2023-05-19T00:41:22.766Z,9.11
2023-05-19T00:43:50.679Z,9.12
2023-05-19T00:46:18.956Z,8.96
2023-05-19T00:48:46.015Z,9.09
2023-05-19T00:51:16.571Z,9.17
2023-05-19T00:53:48.402Z,9.13
2023-05-19T00:56:16.674Z,9.08
2023-05-19T00:58:44.446Z,9.02
2023-05-19T01:01:12.176Z,9.03
2023-05-19T01:03:40.800Z,8.99
2023-05-19T01:06:08.094Z,8.99
2023-05-19T01:08:37.104Z,8.97
2023-05-19T01:11:08.285Z,9.01
2023-05-19T01:13:36.317Z,8.97
2023-05-19T01:16:18.197Z,8.96
2023-05-19T01:18:47.593Z,8.90
2023-05-19T01:21:38.857Z,8.91
2023-05-19T01:24:13.237Z,8.92
2023-05-19T01:27:04.966Z,8.93
2023-05-19T01:30:08.002Z,8.84
2023-05-19T01:32:35.955Z,8.81
2023-05-19T01:35:04.477Z,8.79
2023-05-19T01:37:31.914Z,8.75
2023-05-19T01:39:58.919Z,8.64
2023-05-19T01:42:27.247Z,8.59
2023-05-19T01:44:55.415Z,8.61
2023-05-19T01:47:22.645Z,8.59
2023-05-19T01:49:49.324Z,8.58
2023-05-19T01:52:16.078Z,8.66
2023-05-19T01:54:42.753Z,8.63
2023-05-19T01:57:32.342Z,8.60
2023-05-19T02:00:19.298Z,8.49
2023-05-19T02:03:23.637Z,8.43
2023-05-19T02:06:03.410Z,8.36
2023-05-19T02:08:51.261Z,8.25
2023-05-19T02:11:40.604Z,8.13
2023-05-19T02:14:34.115Z,7.99
2023-05-19T02:17:04.336Z,7.97
2023-05-19T02:19:35.319Z,8.08
2023-05-19T02:22:02.253Z,8.18
2023-05-19T02:24:28.902Z,8.22
2023-05-19T02:26:55.558Z,8.14
2023-05-19T02:29:22.098Z,8.06
2023-05-19T02:31:50.508Z,8.07
2023-05-19T02:34:17.219Z,7.94
2023-05-19T02:36:44.147Z,7.90
2023-05-19T02:39:11.586Z,7.93
2023-05-19T02:41:38.758Z,8.02
2023-05-19T02:44:05.530Z,7.88
2023-05-19T02:46:32.725Z,7.93
2023-05-19T02:48:59.561Z,7.95
2023-05-19T02:51:27.729Z,8.05
2023-05-19T02:53:54.428Z,7.99
2023-05-19T02:56:21.752Z,8.03
2023-05-19T02:58:48.535Z,8.05
2023-05-19T03:01:16.608Z,8.02
2023-05-19T03:03:43.550Z,7.91
2023-05-19T03:06:10.223Z,7.83
2023-05-19T03:08:36.847Z,7.83
2023-05-19T03:11:03.739Z,7.87
2023-05-19T03:13:30.424Z,7.84
2023-05-19T03:15:58.798Z,7.77
2023-05-19T03:18:28.721Z,7.84
2023-05-19T03:20:55.544Z,7.90
2023-05-19T03:23:22.591Z,7.86
2023-05-19T03:25:49.250Z,7.89
2023-05-19T03:28:15.963Z,8.00
2023-05-19T03:30:42.700Z,7.95
2023-05-19T03:33:17.277Z,8.00
2023-05-19T03:35:44.715Z,7.96
2023-05-19T03:38:12.337Z,7.89
2023-05-19T03:40:41.853Z,7.87
2023-05-19T03:43:11.031Z,7.93
2023-05-19T03:45:45.262Z,7.85
2023-05-19T03:48:34.846Z,7.81
2023-05-19T03:51:20.050Z,7.75
2023-05-19T03:53:49.544Z,7.72
2023-05-19T03:56:18.133Z,7.72
2023-05-19T03:58:45.063Z,7.75
2023-05-19T04:01:12.016Z,7.79
2023-05-19T04:03:38.774Z,7.84
2023-05-19T04:06:05.852Z,7.82
2023-05-19T04:08:32.539Z,7.87
2023-05-19T04:10:59.237Z,7.88
2023-05-19T04:13:25.953Z,7.84
2023-05-19T04:15:52.971Z,7.80
2023-05-19T04:18:19.809Z,7.76
2023-05-19T04:20:46.483Z,7.81
2023-05-19T04:23:13.053Z,7.91
2023-05-19T04:25:40.937Z,7.99
2023-05-19T04:28:07.797Z,8.08
2023-05-19T04:30:35.110Z,8.12
2023-05-19T04:33:03.785Z,8.07
2023-05-19T04:35:30.935Z,8.07
2023-05-19T04:37:59.944Z,8.17
2023-05-19T04:40:31.516Z,8.19
2023-05-19T04:42:58.989Z,8.31
2023-05-19T04:45:26.142Z,8.36
2023-05-19T04:47:58.064Z,8.44
2023-05-19T04:50:25.302Z,8.44
2023-05-19T04:52:52.628Z,8.55
2023-05-19T04:55:19.640Z,8.63
2023-05-19T04:57:48.025Z,8.68
2023-05-19T05:00:15.608Z,8.74
2023-05-19T05:03:05.120Z,8.88
2023-05-19T05:05:32.826Z,8.91
2023-05-19T05:08:00.173Z,8.93
2023-05-19T05:10:32.082Z,9.11
2023-05-19T05:12:59.279Z,9.25
2023-05-19T05:15:28.821Z,9.39
2023-05-19T05:17:58.070Z,9.63
2023-05-19T05:20:25.450Z,9.79
2023-05-19T05:22:52.449Z,9.94
2023-05-19T05:25:20.810Z,10.07
2023-05-19T05:27:48.657Z,10.31
2023-05-19T05:30:16.866Z,10.50
2023-05-19T05:32:43.794Z,10.68
2023-05-19T05:35:24.045Z,10.91
2023-05-19T05:37:50.926Z,11.09
2023-05-19T05:40:17.735Z,11.10
2023-05-19T05:42:44.538Z,11.28
2023-05-19T05:45:11.509Z,11.45
2023-05-19T05:47:41.357Z,11.52
2023-05-19T05:50:09.102Z,11.67
2023-05-19T05:52:37.627Z,11.82
2023-05-19T05:55:05.496Z,11.84
2023-05-19T05:57:35.320Z,11.96
2023-05-19T06:00:02.308Z,12.09
2023-05-19T06:02:30.785Z,12.33
2023-05-19T06:04:58.620Z,12.46
2023-05-19T06:07:25.420Z,12.60
2023-05-19T06:09:52.124Z,12.68
2023-05-19T06:12:19.382Z,12.81
2023-05-19T06:14:49.291Z,12.73
2023-05-19T06:17:37.798Z,12.97
2023-05-19T06:20:08.533Z,13.14
2023-05-19T06:22:35.309Z,13.21
2023-05-19T06:25:05.219Z,13.34
2023-05-19T06:27:34.882Z,13.55
2023-05-19T06:30:03.373Z,13.63
2023-05-19T06:32:35.907Z,13.67
2023-05-19T06:35:02.582Z,13.66
2023-05-19T06:37:30.102Z,13.82
2023-05-19T06:39:57.114Z,13.74
2023-05-19T06:42:25.390Z,13.85
2023-05-19T06:45:07.245Z,14.10
2023-05-19T06:47:33.918Z,14.25
2023-05-19T06:50:00.751Z,14.31
2023-05-19T06:52:31.214Z,14.26
2023-05-19T06:54:58.012Z,14.47
2023-05-19T06:57:24.980Z,14.43
2023-05-19T06:59:51.629Z,14.52
2023-05-19T07:02:18.653Z,14.66
2023-05-19T07:04:45.361Z,14.78
2023-05-19T07:07:15.646Z,14.96
2023-05-19T07:09:43.151Z,14.99
2023-05-19T07:12:09.843Z,15.03
2023-05-19T07:14:38.825Z,15.38
2023-05-19T07:17:05.886Z,15.22
2023-05-19T07:19:33.652Z,15.35
2023-05-19T07:22:00.295Z,15.34
2023-05-19T07:24:27.546Z,15.46
2023-05-19T07:26:54.224Z,15.56
2023-05-19T07:29:20.853Z,15.77
2023-05-19T07:31:47.527Z,15.82
2023-05-19T07:34:14.190Z,15.81
2023-05-19T07:36:41.575Z,15.86
2023-05-19T07:39:08.353Z,16.09
2023-05-19T07:41:36.370Z,16.02
2023-05-19T07:44:07.490Z,16.03
2023-05-19T07:46:35.145Z,16.08
2023-05-19T07:49:01.770Z,16.24
2023-05-19T07:51:28.371Z,16.40
2023-05-19T07:53:54.997Z,16.39
2023-05-19T07:56:21.764Z,16.30
2023-05-19T07:58:48.415Z,16.46
2023-05-19T08:01:15.028Z,16.46
2023-05-19T08:03:41.660Z,16.48
2023-05-19T08:06:08.364Z,16.25
2023-05-19T08:08:34.966Z,16.46
2023-05-19T08:11:03.603Z,16.66
2023-05-19T08:13:31.144Z,16.73
2023-05-19T08:15:59.862Z,16.70
2023-05-19T08:18:26.820Z,16.93
2023-05-19T08:20:53.519Z,17.11
2023-05-19T08:23:20.136Z,17.19
2023-05-19T08:25:46.867Z,17.11
2023-05-19T08:28:13.951Z,17.23
2023-05-19T08:30:40.788Z,17.10
2023-05-19T08:33:08.442Z,17.03
2023-05-19T08:35:35.120Z,17.22
2023-05-19T08:38:01.750Z,17.33
2023-05-19T08:40:31.495Z,17.36
2023-05-19T08:42:58.469Z,17.35
2023-05-19T08:45:25.131Z,17.40
2023-05-19T08:47:52.348Z,17.35
2023-05-19T08:50:24.902Z,17.09
2023-05-19T08:53:28.945Z,17.48
2023-05-19T08:56:04.685Z,17.60
2023-05-19T08:58:32.297Z,17.65
2023-05-19T09:01:00.975Z,17.94
2023-05-19T09:03:29.124Z,17.66
2023-05-19T09:05:56.189Z,18.04
2023-05-19T09:08:22.885Z,17.71
2023-05-19T09:10:49.484Z,17.53
2023-05-19T09:13:16.570Z,17.29
2023-05-19T09:15:45.590Z,17.77
2023-05-19T09:18:13.844Z,17.60
2023-05-19T09:20:42.919Z,17.88
2023-05-19T09:23:15.026Z,17.94
2023-05-19T09:25:53.918Z,17.77
2023-05-19T09:28:28.057Z,18.12
2023-05-19T09:31:05.510Z,18.06
2023-05-19T09:33:45.505Z,18.24
2023-05-19T09:36:13.829Z,18.49
2023-05-19T09:38:40.657Z,18.57
2023-05-19T09:41:08.766Z,18.81
2023-05-19T09:43:36.462Z,19.04
2023-05-19T09:46:08.086Z,19.44
2023-05-19T09:48:36.561Z,18.81
2023-05-19T09:51:06.219Z,18.66
2023-05-19T09:53:34.172Z,18.57
2023-05-19T09:56:01.985Z,18.64
2023-05-19T09:58:35.189Z,18.21
2023-05-19T10:01:03.728Z,18.16
2023-05-19T10:03:33.004Z,18.86
2023-05-19T10:06:01.367Z,18.74
2023-05-19T10:08:30.636Z,18.82
2023-05-19T10:10:57.870Z,19.15
2023-05-19T10:13:25.830Z,19.50
2023-05-19T10:15:59.027Z,20.16
2023-05-19T10:18:27.853Z,20.36
2023-05-19T10:20:54.971Z,19.98
2023-05-19T10:23:22.537Z,19.92
2023-05-19T10:25:53.731Z,19.58
2023-05-19T10:28:26.609Z,19.72
2023-05-19T10:30:56.036Z,20.02
2023-05-19T10:33:29.449Z,20.02
2023-05-19T10:36:33.336Z,20.19
2023-05-19T10:39:13.232Z,20.10
2023-05-19T10:41:39.799Z,19.58
2023-05-19T10:44:35.119Z,19.63
2023-05-19T10:47:01.824Z,19.04
2023-05-19T10:49:28.851Z,19.01
2023-05-19T10:51:58.840Z,19.83
2023-05-19T10:54:43.446Z,20.29
2023-05-19T10:57:15.002Z,19.62
2023-05-19T10:59:42.048Z,19.58
2023-05-19T11:02:09.294Z,19.77
2023-05-19T11:04:40.093Z,19.58
2023-05-19T11:07:09.452Z,19.66
2023-05-19T11:09:42.916Z,19.21
2023-05-19T11:12:10.948Z,19.54
2023-05-19T11:14:37.829Z,20.05
2023-05-19T11:17:05.589Z,20.48
2023-05-19T11:19:35.135Z,21.10
2023-05-19T11:22:11.393Z,20.68
2023-05-19T11:24:50.533Z,20.28
2023-05-19T11:27:31.329Z,19.98
2023-05-19T11:30:20.070Z,19.72
2023-05-19T11:32:50.558Z,19.22
2023-05-19T11:35:19.079Z,19.61
2023-05-19T11:37:47.685Z,20.22
2023-05-19T11:40:15.689Z,19.84
2023-05-19T11:42:42.344Z,19.69
2023-05-19T11:45:09.714Z,19.62
2023-05-19T11:47:50.705Z,19.64
2023-05-19T11:50:24.312Z,19.63
2023-05-19T11:52:55.138Z,20.13
2023-05-19T11:55:22.832Z,20.20
2023-05-19T11:58:03.887Z,20.25
2023-05-19T12:00:40.017Z,20.11
2023-05-19T12:03:07.823Z,20.47
2023-05-19T12:05:41.936Z,20.92
2023-05-19T12:08:10.334Z,21.01
2023-05-19T12:10:38.371Z,21.28
2023-05-19T12:13:08.072Z,21.24
2023-05-19T12:15:35.281Z,21.19
2023-05-19T12:18:02.879Z,21.24
2023-05-19T12:20:32.602Z,20.99
2023-05-19T12:23:00.225Z,20.85
2023-05-19T12:25:27.748Z,20.87
2023-05-19T12:27:58.776Z,20.56
2023-05-19T12:30:29.811Z,19.71
2023-05-19T12:33:00.195Z,19.46
2023-05-19T12:35:33.634Z,19.97
2023-05-19T12:38:06.880Z,20.35
2023-05-19T12:40:37.778Z,20.54
2023-05-19T12:43:05.617Z,20.76
2023-05-19T12:45:36.767Z,20.89
2023-05-19T12:48:06.980Z,21.13
2023-05-19T12:50:36.558Z,21.27
2023-05-19T12:53:03.587Z,20.84
2023-05-19T12:55:30.466Z,20.63
2023-05-19T12:57:58.594Z,21.00
2023-05-19T13:00:28.927Z,21.29
2023-05-19T13:03:14.611Z,21.64
2023-05-19T13:05:46.549Z,21.15
2023-05-19T13:08:18.506Z,20.02
2023-05-19T13:10:46.473Z,19.96
2023-05-19T13:13:13.558Z,20.33
2023-05-19T13:15:44.958Z,20.83
2023-05-19T13:18:13.757Z,20.75
2023-05-19T13:20:42.066Z,21.10
2023-05-19T13:23:10.891Z,21.30
2023-05-19T13:25:37.694Z,21.58
2023-05-19T13:28:07.993Z,21.35
2023-05-19T13:30:37.914Z,21.51
2023-05-19T13:33:05.455Z,21.54
2023-05-19T13:35:37.553Z,21.31
2023-05-19T13:38:05.641Z,21.76
2023-05-19T13:40:35.221Z,22.22
2023-05-19T13:43:04.601Z,20.81
2023-05-19T13:45:31.457Z,20.73
2023-05-19T13:47:58.250Z,20.44
2023-05-19T13:50:25.079Z,20.86
2023-05-19T13:52:52.006Z,20.90
2023-05-19T13:55:19.054Z,21.53
2023-05-19T13:57:45.731Z,21.83
2023-05-19T14:00:12.717Z,21.41
2023-05-19T14:02:40.050Z,20.99
2023-05-19T14:05:07.468Z,21.15
2023-05-19T14:07:37.077Z,20.74
2023-05-19T14:10:06.386Z,20.76
2023-05-19T14:12:43.584Z,21.07
2023-05-19T14:15:17.956Z,20.63
2023-05-19T14:17:44.808Z,20.61
2023-05-19T14:20:12.501Z,21.08
2023-05-19T14:22:39.112Z,21.58
2023-05-19T14:25:06.431Z,21.70
2023-05-19T14:27:33.068Z,21.66
2023-05-19T14:29:59.710Z,21.55
2023-05-19T14:32:28.655Z,21.85
2023-05-19T14:34:56.824Z,22.04
2023-05-19T14:37:24.174Z,22.16
2023-05-19T14:39:50.896Z,21.68
2023-05-19T14:42:17.582Z,21.25
2023-05-19T14:44:44.207Z,21.06
2023-05-19T14:47:12.296Z,20.99
2023-05-19T14:49:39.027Z,21.07
2023-05-19T14:52:05.806Z,20.05
2023-05-19T14:54:32.515Z,20.23
2023-05-19T14:56:59.248Z,20.48
2023-05-19T14:59:25.993Z,21.03
2023-05-19T15:01:52.663Z,21.12
2023-05-19T15:04:19.421Z,20.78
2023-05-19T15:06:48.198Z,20.74
2023-05-19T15:09:19.095Z,21.00
2023-05-19T15:11:45.977Z,20.89
2023-05-19T15:14:12.882Z,20.86
2023-05-19T15:16:39.742Z,20.44
2023-05-19T15:19:31.607Z,20.58
2023-05-19T15:21:58.463Z,20.73
2023-05-19T15:24:25.365Z,20.96
2023-05-19T15:26:52.514Z,20.90
2023-05-19T15:29:19.230Z,21.06
2023-05-19T15:31:46.300Z,21.23
2023-05-19T15:34:13.188Z,21.45
2023-05-19T15:36:39.921Z,21.55
2023-05-19T15:39:06.694Z,21.52
2023-05-19T15:41:33.411Z,21.51
2023-05-19T15:44:00.651Z,21.36
2023-05-19T15:46:27.631Z,21.10
2023-05-19T15:48:54.660Z,20.75
2023-05-19T15:51:21.557Z,20.59
2023-05-19T15:53:48.348Z,20.56
2023-05-19T15:56:15.351Z,20.68
2023-05-19T15:58:42.245Z,20.87
2023-05-19T16:01:09.095Z,20.93
2023-05-19T16:03:35.836Z,20.62
2023-05-19T16:06:02.951Z,20.77
2023-05-19T16:08:29.923Z,20.82
2023-05-19T16:10:56.808Z,21.00
2023-05-19T16:13:23.724Z,21.09
2023-05-19T16:15:50.768Z,21.10
2023-05-19T16:18:17.760Z,21.04
2023-05-19T16:20:44.773Z,21.17
2023-05-19T16:23:11.446Z,21.34
2023-05-19T16:25:38.154Z,20.88
2023-05-19T16:28:05.273Z,20.97
2023-05-19T16:30:32.221Z,20.89
2023-05-19T16:32:59.342Z,20.49
2023-05-19T16:35:27.888Z,20.44
2023-05-19T16:37:54.949Z,20.31
2023-05-19T16:40:21.638Z,20.16
2023-05-19T16:42:48.334Z,20.10
2023-05-19T16:45:17.511Z,20.17
2023-05-19T16:47:44.685Z,20.36
2023-05-19T16:50:14.661Z,20.49
2023-05-19T16:52:41.308Z,20.52
2023-05-19T16:55:08.428Z,20.52
2023-05-19T16:57:35.031Z,20.54
2023-05-19T17:00:01.710Z,20.42
2023-05-19T17:02:28.540Z,20.51
2023-05-19T17:04:55.565Z,20.73
2023-05-19T17:07:22.267Z,20.60
2023-05-19T17:09:49.066Z,20.60
2023-05-19T17:12:15.924Z,20.13
2023-05-19T17:14:43.533Z,19.93
2023-05-19T17:17:10.476Z,20.13
2023-05-19T17:19:37.221Z,19.86
2023-05-19T17:22:04.221Z,20.06
2023-05-19T17:24:33.128Z,20.19
2023-05-19T17:27:00.544Z,20.25
2023-05-19T17:29:27.932Z,20.16
2023-05-19T17:31:55.475Z,20.20
2023-05-19T17:34:22.209Z,19.80
2023-05-19T17:36:49.734Z,19.87
2023-05-19T17:39:16.625Z,19.87
2023-05-19T17:41:43.405Z,19.75
2023-05-19T17:44:10.044Z,19.82
2023-05-19T17:46:38.796Z,19.96
2023-05-19T17:49:06.325Z,19.96
2023-05-19T17:51:33.357Z,19.83
2023-05-19T17:54:00.388Z,19.75
2023-05-19T17:56:30.344Z,19.87
2023-05-19T17:58:57.141Z,19.81
2023-05-19T18:01:25.748Z,19.87
2023-05-19T18:03:52.872Z,19.85
2023-05-19T18:06:20.385Z,19.64
2023-05-19T18:08:50.365Z,19.57
2023-05-19T18:11:18.105Z,19.59
2023-05-19T18:13:44.879Z,19.29
2023-05-19T18:16:12.292Z,19.48
2023-05-19T18:18:41.143Z,19.47
2023-05-19T18:21:08.024Z,19.44
2023-05-19T18:23:34.727Z,19.50
2023-05-19T18:26:01.415Z,19.48
2023-05-19T18:28:29.647Z,19.53
2023-05-19T18:31:00.779Z,19.61
2023-05-19T18:33:28.726Z,19.68
2023-05-19T18:35:57.776Z,19.49
2023-05-19T18:38:24.475Z,19.49
2023-05-19T18:40:51.322Z,19.27
2023-05-19T18:43:21.724Z,19.06
2023-05-19T18:45:48.585Z,19.00
2023-05-19T18:48:15.806Z,18.97
2023-05-19T18:50:44.521Z,18.99
2023-05-19T18:53:11.905Z,18.88
2023-05-19T18:55:38.696Z,18.82
2023-05-19T18:58:06.182Z,18.76
2023-05-19T19:00:37.537Z,18.66
2023-05-19T19:03:04.543Z,18.56
2023-05-19T19:05:31.311Z,18.42
2023-05-19T19:07:58.078Z,18.39
2023-05-19T19:10:24.699Z,18.25
2023-05-19T19:12:51.325Z,18.17
2023-05-19T19:15:17.978Z,18.20
2023-05-19T19:17:45.652Z,18.14
2023-05-19T19:20:12.788Z,17.88
2023-05-19T19:22:39.435Z,17.89
2023-05-19T19:25:06.297Z,17.80
2023-05-19T19:27:35.479Z,17.78
2023-05-19T19:30:02.277Z,17.86
2023-05-19T19:32:31.309Z,17.88
2023-05-19T19:34:58.219Z,17.77
2023-05-19T19:37:24.926Z,17.68
2023-05-19T19:39:51.641Z,17.68
2023-05-19T19:42:18.843Z,17.73
2023-05-19T19:44:45.590Z,17.76
2023-05-19T19:47:12.192Z,17.82
2023-05-19T19:49:38.792Z,17.82
2023-05-19T19:52:05.870Z,17.66
2023-05-19T19:54:32.609Z,17.73
2023-05-19T19:56:59.233Z,17.49
2023-05-19T19:59:26.902Z,17.48
2023-05-19T20:01:53.643Z,17.31
2023-05-19T20:04:20.785Z,17.33
2023-05-19T20:06:47.507Z,17.24
2023-05-19T20:09:14.190Z,17.32
2023-05-19T20:11:40.942Z,17.29
2023-05-19T20:14:07.728Z,17.18
2023-05-19T20:16:34.507Z,17.18
2023-05-19T20:19:01.673Z,17.09
2023-05-19T20:21:28.325Z,17.07
2023-05-19T20:23:55.003Z,16.96
2023-05-19T20:26:22.402Z,17.04
2023-05-19T20:28:49.162Z,17.00
2023-05-19T20:31:15.854Z,17.02
2023-05-19T20:33:42.506Z,16.96
2023-05-19T20:36:10.872Z,17.02
2023-05-19T20:38:37.541Z,16.89
2023-05-19T20:41:04.194Z,16.88
2023-05-19T20:43:32.060Z,16.74
2023-05-19T20:45:59.823Z,16.60
2023-05-19T20:48:26.698Z,16.60
2023-05-19T20:50:54.278Z,16.67
2023-05-19T20:53:21.703Z,16.66
2023-05-19T20:55:48.674Z,16.65
2023-05-19T20:58:15.498Z,16.61
2023-05-19T21:00:42.262Z,16.56
2023-05-19T21:03:09.090Z,16.63
2023-05-19T21:05:36.344Z,16.57
2023-05-19T21:08:03.388Z,16.53
2023-05-19T21:10:30.033Z,16.43
2023-05-19T21:12:58.747Z,16.40
2023-05-19T21:15:26.924Z,16.35
2023-05-19T21:17:53.605Z,16.07
2023-05-19T21:20:20.529Z,15.95
2023-05-19T21:22:47.118Z,15.97
2023-05-19T21:25:13.844Z,16.00
2023-05-19T21:27:40.654Z,15.95
2023-05-19T21:30:07.927Z,15.80
2023-05-19T21:32:34.643Z,15.85
2023-05-19T21:35:01.505Z,15.73
2023-05-19T21:37:28.231Z,15.82
2023-05-19T21:39:54.840Z,15.83
2023-05-19T21:42:21.577Z,15.85
2023-05-19T21:44:48.211Z,15.79
2023-05-19T21:47:15.796Z,15.69
2023-05-19T21:49:42.628Z,15.72
2023-05-19T21:52:09.605Z,15.71
2023-05-19T21:54:36.512Z,15.69
2023-05-19T21:57:03.577Z,15.75
2023-05-19T21:59:30.515Z,15.67
2023-05-19T22:01:57.202Z,15.62
2023-05-19T22:04:23.927Z,15.57
2023-05-19T22:06:50.555Z,15.56
2023-05-19T22:09:18.034Z,15.58
2023-05-19T22:11:44.917Z,15.48
2023-05-19T22:14:11.703Z,15.47
2023-05-19T22:16:38.417Z,15.52
2023-05-19T22:19:05.228Z,15.56
2023-05-19T22:21:32.041Z,15.56
2023-05-19T22:23:58.764Z,15.33
2023-05-19T22:26:26.014Z,15.30
2023-05-19T22:28:53.349Z,15.16
2023-05-19T22:31:20.010Z,15.03
2023-05-19T22:33:46.730Z,14.93
2023-05-19T22:36:15.952Z,14.96
2023-05-19T22:38:42.637Z,15.00
2023-05-19T22:41:09.309Z,14.86
2023-05-19T22:43:36.016Z,14.85
2023-05-19T22:46:02.718Z,14.98
2023-05-19T22:48:30.545Z,14.79
2023-05-19T22:50:57.385Z,14.84
2023-05-19T22:53:23.991Z,14.86
2023-05-19T22:55:50.658Z,14.86
2023-05-19T22:58:17.227Z,14.86
2023-05-19T23:00:43.835Z,14.83
2023-05-19T23:03:11.323Z,14.90
2023-05-19T23:05:37.980Z,14.85
2023-05-19T23:08:04.816Z,14.90
2023-05-19T23:10:31.433Z,14.87
2023-05-19T23:12:58.034Z,14.72
2023-05-19T23:15:24.707Z,14.76
2023-05-19T23:17:51.547Z,14.86
2023-05-19T23:20:18.340Z,14.85
2023-05-19T23:22:44.966Z,14.72
2023-05-19T23:25:12.211Z,14.65
2023-05-19T23:27:38.894Z,14.76
2023-05-19T23:30:06.542Z,14.76
2023-05-19T23:32:33.289Z,14.76
2023-05-19T23:35:11.496Z,14.70
2023-05-19T23:37:38.099Z,14.75
2023-05-19T23:40:06.471Z,14.70
2023-05-19T23:42:33.066Z,14.60
2023-05-19T23:44:59.718Z,14.62
2023-05-19T23:47:26.666Z,14.50
2023-05-19T23:49:53.332Z,14.60
2023-05-19T23:52:19.916Z,14.58
2023-05-19T23:54:46.575Z,14.59
2023-05-19T23:57:13.313Z,14.61
2023-05-19T23:59:39.909Z,14.60
